sensor_id;sensor_type;location;lat;lon;timestamp;temperature;humidity
37410;DHT22;23275;48.914;12.566;2022-12-20T00:02:01;-1.60;99.90
37410;DHT22;23275;48.914;12.566;2022-12-20T00:04:27;-1.60;99.90
37410;DHT22;23275;48.914;12.566;2022-12-20T00:06:52;-1.60;99.90
37410;DHT22;23275;48.914;12.566;2022-12-20T00:09:18;-1.60;99.90
37410;DHT22;23275;48.914;12.566;2022-12-20T00:11:43;-1.60;99.90
37410;DHT22;23275;48.914;12.566;2022-12-20T00:14:09;-1.50;99.90
37410;DHT22;23275;48.914;12.566;2022-12-20T00:16:35;-1.50;99.90
37410;DHT22;23275;48.914;12.566;2022-12-20T00:19:03;-1.50;99.90
37410;DHT22;23275;48.914;12.566;2022-12-20T00:21:31;-1.50;99.90
37410;DHT22;23275;48.914;12.566;2022-12-20T00:23:58;-1.50;99.90
37410;DHT22;23275;48.914;12.566;2022-12-20T00:26:29;-1.50;99.90
37410;DHT22;23275;48.914;12.566;2022-12-20T00:28:55;-1.50;99.90
37410;DHT22;23275;48.914;12.566;2022-12-20T00:31:22;-1.50;99.90
37410;DHT22;23275;48.914;12.566;2022-12-20T00:33:50;-1.50;99.90
37410;DHT22;23275;48.914;12.566;2022-12-20T00:36:17;-1.50;99.90
37410;DHT22;23275;48.914;12.566;2022-12-20T00:38:50;-1.50;99.90
37410;DHT22;23275;48.914;12.566;2022-12-20T00:41:23;-1.50;99.90
37410;DHT22;23275;48.914;12.566;2022-12-20T00:43:49;-1.50;99.90
37410;DHT22;23275;48.914;12.566;2022-12-20T00:46:16;-1.50;99.90
37410;DHT22;23275;48.914;12.566;2022-12-20T00:48:42;-1.50;99.90
37410;DHT22;23275;48.914;12.566;2022-12-20T00:51:10;-1.50;99.90
37410;DHT22;23275;48.914;12.566;2022-12-20T00:53:37;-1.50;99.90
37410;DHT22;23275;48.914;12.566;2022-12-20T00:56:04;-1.50;99.90
37410;DHT22;23275;48.914;12.566;2022-12-20T00:58:31;-1.50;99.90
37410;DHT22;23275;48.914;12.566;2022-12-20T01:00:57;-1.50;99.90
37410;DHT22;23275;48.914;12.566;2022-12-20T01:03:23;-1.50;99.90
37410;DHT22;23275;48.914;12.566;2022-12-20T01:08:15;-1.50;99.90
37410;DHT22;23275;48.914;12.566;2022-12-20T01:10:41;-1.60;99.90
37410;DHT22;23275;48.914;12.566;2022-12-20T01:13:06;-1.60;99.90
37410;DHT22;23275;48.914;12.566;2022-12-20T01:15:33;-1.60;99.90
37410;DHT22;23275;48.914;12.566;2022-12-20T01:17:58;-1.50;99.90
37410;DHT22;23275;48.914;12.566;2022-12-20T01:20:24;-1.50;99.90
37410;DHT22;23275;48.914;12.566;2022-12-20T01:22:49;-1.50;99.90
37410;DHT22;23275;48.914;12.566;2022-12-20T01:25:15;-1.50;99.90
37410;DHT22;23275;48.914;12.566;2022-12-20T01:27:40;-1.40;99.90
37410;DHT22;23275;48.914;12.566;2022-12-20T01:30:07;-1.40;99.90
37410;DHT22;23275;48.914;12.566;2022-12-20T01:32:32;-1.40;99.90
37410;DHT22;23275;48.914;12.566;2022-12-20T01:34:58;-1.40;99.90
37410;DHT22;23275;48.914;12.566;2022-12-20T01:37:23;-1.40;99.90
37410;DHT22;23275;48.914;12.566;2022-12-20T01:39:49;-1.40;99.90
37410;DHT22;23275;48.914;12.566;2022-12-20T01:42:15;-1.40;99.90
37410;DHT22;23275;48.914;12.566;2022-12-20T01:47:06;-1.40;99.90
37410;DHT22;23275;48.914;12.566;2022-12-20T01:49:42;-1.40;99.90
37410;DHT22;23275;48.914;12.566;2022-12-20T01:55:20;-1.50;99.90
37410;DHT22;23275;48.914;12.566;2022-12-20T01:57:51;-1.50;99.90
37410;DHT22;23275;48.914;12.566;2022-12-20T02:00:19;-1.50;99.90
37410;DHT22;23275;48.914;12.566;2022-12-20T02:02:48;-1.50;99.90
37410;DHT22;23275;48.914;12.566;2022-12-20T02:05:15;-1.50;99.90
37410;DHT22;23275;48.914;12.566;2022-12-20T02:07:42;-1.60;99.90
37410;DHT22;23275;48.914;12.566;2022-12-20T02:10:11;-1.60;99.90
37410;DHT22;23275;48.914;12.566;2022-12-20T02:12:45;-1.60;99.90
37410;DHT22;23275;48.914;12.566;2022-12-20T02:26:25;-1.60;99.90
37410;DHT22;23275;48.914;12.566;2022-12-20T02:29:17;-1.60;99.90
37410;DHT22;23275;48.914;12.566;2022-12-20T02:31:52;-1.60;99.90
37410;DHT22;23275;48.914;12.566;2022-12-20T02:34:22;-1.60;99.90
37410;DHT22;23275;48.914;12.566;2022-12-20T02:36:49;-1.60;99.90
37410;DHT22;23275;48.914;12.566;2022-12-20T02:39:15;-1.60;99.90
37410;DHT22;23275;48.914;12.566;2022-12-20T02:41:57;-1.60;99.90
37410;DHT22;23275;48.914;12.566;2022-12-20T02:44:26;-1.50;99.90
37410;DHT22;23275;48.914;12.566;2022-12-20T02:47:20;-1.50;99.90
37410;DHT22;23275;48.914;12.566;2022-12-20T02:49:50;-1.50;99.90
37410;DHT22;23275;48.914;12.566;2022-12-20T02:52:17;-1.50;99.90
37410;DHT22;23275;48.914;12.566;2022-12-20T02:54:45;-1.40;99.90
37410;DHT22;23275;48.914;12.566;2022-12-20T02:57:24;-1.40;99.90
37410;DHT22;23275;48.914;12.566;2022-12-20T03:02:27;-1.40;99.90
37410;DHT22;23275;48.914;12.566;2022-12-20T03:04:53;-1.40;99.90
37410;DHT22;23275;48.914;12.566;2022-12-20T03:07:19;-1.40;99.90
37410;DHT22;23275;48.914;12.566;2022-12-20T03:09:45;-1.30;99.90
37410;DHT22;23275;48.914;12.566;2022-12-20T03:12:12;-1.40;99.90
37410;DHT22;23275;48.914;12.566;2022-12-20T03:14:38;-1.40;99.90
37410;DHT22;23275;48.914;12.566;2022-12-20T03:17:05;-1.40;99.90
37410;DHT22;23275;48.914;12.566;2022-12-20T03:19:30;-1.40;99.90
37410;DHT22;23275;48.914;12.566;2022-12-20T03:21:56;-1.40;99.90
37410;DHT22;23275;48.914;12.566;2022-12-20T03:24:22;-1.40;99.90
37410;DHT22;23275;48.914;12.566;2022-12-20T03:26:47;-1.40;99.90
37410;DHT22;23275;48.914;12.566;2022-12-20T03:29:13;-1.40;99.90
37410;DHT22;23275;48.914;12.566;2022-12-20T03:31:38;-1.40;99.90
37410;DHT22;23275;48.914;12.566;2022-12-20T03:34:04;-1.40;99.90
37410;DHT22;23275;48.914;12.566;2022-12-20T03:36:30;-1.40;99.90
37410;DHT22;23275;48.914;12.566;2022-12-20T03:38:56;-1.40;99.90
37410;DHT22;23275;48.914;12.566;2022-12-20T03:41:22;-1.40;99.90
37410;DHT22;23275;48.914;12.566;2022-12-20T03:43:49;-1.40;99.90
37410;DHT22;23275;48.914;12.566;2022-12-20T03:46:15;-1.40;99.90
37410;DHT22;23275;48.914;12.566;2022-12-20T03:48:41;-1.40;99.90
37410;DHT22;23275;48.914;12.566;2022-12-20T03:51:06;-1.50;99.90
37410;DHT22;23275;48.914;12.566;2022-12-20T03:53:32;-1.50;99.90
37410;DHT22;23275;48.914;12.566;2022-12-20T03:55:58;-1.50;99.90
37410;DHT22;23275;48.914;12.566;2022-12-20T03:58:24;-1.50;99.90
37410;DHT22;23275;48.914;12.566;2022-12-20T04:00:49;-1.50;99.90
37410;DHT22;23275;48.914;12.566;2022-12-20T04:03:15;-1.50;99.90
37410;DHT22;23275;48.914;12.566;2022-12-20T04:05:41;-1.50;99.90
37410;DHT22;23275;48.914;12.566;2022-12-20T04:08:06;-1.50;99.90
37410;DHT22;23275;48.914;12.566;2022-12-20T04:10:32;-1.50;99.90
37410;DHT22;23275;48.914;12.566;2022-12-20T04:13:17;-1.50;99.90
37410;DHT22;23275;48.914;12.566;2022-12-20T04:15:43;-1.50;99.90
37410;DHT22;23275;48.914;12.566;2022-12-20T04:18:08;-1.50;99.90
37410;DHT22;23275;48.914;12.566;2022-12-20T04:20:34;-1.50;99.90
37410;DHT22;23275;48.914;12.566;2022-12-20T04:23:00;-1.40;99.90
37410;DHT22;23275;48.914;12.566;2022-12-20T04:25:25;-1.50;99.90
37410;DHT22;23275;48.914;12.566;2022-12-20T04:27:51;-1.40;99.90
37410;DHT22;23275;48.914;12.566;2022-12-20T04:30:16;-1.40;99.90
37410;DHT22;23275;48.914;12.566;2022-12-20T04:32:42;-1.40;99.90
37410;DHT22;23275;48.914;12.566;2022-12-20T04:35:08;-1.40;99.90
37410;DHT22;23275;48.914;12.566;2022-12-20T04:37:34;-1.40;99.90
37410;DHT22;23275;48.914;12.566;2022-12-20T04:39:59;-1.40;99.90
37410;DHT22;23275;48.914;12.566;2022-12-20T04:42:25;-1.40;99.90
37410;DHT22;23275;48.914;12.566;2022-12-20T04:44:50;-1.40;99.90
37410;DHT22;23275;48.914;12.566;2022-12-20T04:47:16;-1.40;99.90
37410;DHT22;23275;48.914;12.566;2022-12-20T04:49:43;-1.40;99.90
37410;DHT22;23275;48.914;12.566;2022-12-20T04:52:08;-1.40;99.90
37410;DHT22;23275;48.914;12.566;2022-12-20T04:54:52;-1.40;99.90
37410;DHT22;23275;48.914;12.566;2022-12-20T04:57:18;-1.40;99.90
37410;DHT22;23275;48.914;12.566;2022-12-20T04:59:43;-1.40;99.90
37410;DHT22;23275;48.914;12.566;2022-12-20T05:02:09;-1.40;99.90
37410;DHT22;23275;48.914;12.566;2022-12-20T05:04:34;-1.40;99.90
37410;DHT22;23275;48.914;12.566;2022-12-20T05:07:00;-1.50;99.90
37410;DHT22;23275;48.914;12.566;2022-12-20T05:09:25;-1.50;99.90
37410;DHT22;23275;48.914;12.566;2022-12-20T05:11:51;-1.50;99.90
37410;DHT22;23275;48.914;12.566;2022-12-20T05:14:16;-1.60;99.90
37410;DHT22;23275;48.914;12.566;2022-12-20T05:16:42;-1.70;99.90
37410;DHT22;23275;48.914;12.566;2022-12-20T05:19:07;-1.80;99.90
37410;DHT22;23275;48.914;12.566;2022-12-20T05:21:33;-1.80;99.90
37410;DHT22;23275;48.914;12.566;2022-12-20T05:24:17;-1.80;99.90
37410;DHT22;23275;48.914;12.566;2022-12-20T05:27:01;-1.80;99.90
37410;DHT22;23275;48.914;12.566;2022-12-20T05:29:27;-1.80;99.90
37410;DHT22;23275;48.914;12.566;2022-12-20T05:31:53;-1.80;99.90
37410;DHT22;23275;48.914;12.566;2022-12-20T05:34:19;-1.80;99.90
37410;DHT22;23275;48.914;12.566;2022-12-20T05:36:45;-1.80;99.90
37410;DHT22;23275;48.914;12.566;2022-12-20T05:39:10;-1.80;99.90
37410;DHT22;23275;48.914;12.566;2022-12-20T05:41:37;-1.70;99.90
37410;DHT22;23275;48.914;12.566;2022-12-20T05:44:03;-1.70;99.90
37410;DHT22;23275;48.914;12.566;2022-12-20T05:46:28;-1.70;99.90
37410;DHT22;23275;48.914;12.566;2022-12-20T05:48:54;-1.70;99.90
37410;DHT22;23275;48.914;12.566;2022-12-20T05:51:19;-1.70;99.90
37410;DHT22;23275;48.914;12.566;2022-12-20T05:53:45;-1.70;99.90
37410;DHT22;23275;48.914;12.566;2022-12-20T05:56:11;-1.70;99.90
37410;DHT22;23275;48.914;12.566;2022-12-20T05:58:36;-1.70;99.90
37410;DHT22;23275;48.914;12.566;2022-12-20T06:01:04;-1.70;99.90
37410;DHT22;23275;48.914;12.566;2022-12-20T06:03:30;-1.70;99.90
37410;DHT22;23275;48.914;12.566;2022-12-20T06:05:55;-1.80;99.90
37410;DHT22;23275;48.914;12.566;2022-12-20T06:08:21;-1.80;99.90
37410;DHT22;23275;48.914;12.566;2022-12-20T06:10:48;-1.90;99.90
37410;DHT22;23275;48.914;12.566;2022-12-20T06:13:14;-1.90;99.90
37410;DHT22;23275;48.914;12.566;2022-12-20T06:15:40;-1.90;99.90
37410;DHT22;23275;48.914;12.566;2022-12-20T06:18:06;-1.80;99.90
37410;DHT22;23275;48.914;12.566;2022-12-20T06:20:34;-1.80;99.90
37410;DHT22;23275;48.914;12.566;2022-12-20T06:23:01;-1.80;99.90
37410;DHT22;23275;48.914;12.566;2022-12-20T06:25:28;-1.80;99.90
37410;DHT22;23275;48.914;12.566;2022-12-20T06:27:54;-1.70;99.90
37410;DHT22;23275;48.914;12.566;2022-12-20T06:30:20;-1.70;99.90
37410;DHT22;23275;48.914;12.566;2022-12-20T06:32:46;-1.70;99.90
37410;DHT22;23275;48.914;12.566;2022-12-20T06:35:12;-1.60;99.90
37410;DHT22;23275;48.914;12.566;2022-12-20T06:37:39;-1.60;99.90
37410;DHT22;23275;48.914;12.566;2022-12-20T06:40:06;-1.60;99.90
37410;DHT22;23275;48.914;12.566;2022-12-20T06:42:32;-1.60;99.90
37410;DHT22;23275;48.914;12.566;2022-12-20T06:45:07;-1.60;99.90
37410;DHT22;23275;48.914;12.566;2022-12-20T06:47:53;-1.60;99.90
37410;DHT22;23275;48.914;12.566;2022-12-20T06:50:22;-1.60;99.90
37410;DHT22;23275;48.914;12.566;2022-12-20T06:52:47;-1.60;99.90
37410;DHT22;23275;48.914;12.566;2022-12-20T06:55:13;-1.60;99.90
37410;DHT22;23275;48.914;12.566;2022-12-20T06:57:38;-1.60;99.90
37410;DHT22;23275;48.914;12.566;2022-12-20T07:00:04;-1.60;99.90
37410;DHT22;23275;48.914;12.566;2022-12-20T07:02:30;-1.60;99.90
37410;DHT22;23275;48.914;12.566;2022-12-20T07:04:56;-1.60;99.90
37410;DHT22;23275;48.914;12.566;2022-12-20T07:07:22;-1.60;99.90
37410;DHT22;23275;48.914;12.566;2022-12-20T07:09:47;-1.60;99.90
37410;DHT22;23275;48.914;12.566;2022-12-20T07:12:13;-1.50;99.90
37410;DHT22;23275;48.914;12.566;2022-12-20T07:14:40;-1.60;99.90
37410;DHT22;23275;48.914;12.566;2022-12-20T07:17:06;-1.50;99.90
37410;DHT22;23275;48.914;12.566;2022-12-20T07:19:32;-1.50;99.90
37410;DHT22;23275;48.914;12.566;2022-12-20T07:21:58;-1.50;99.90
37410;DHT22;23275;48.914;12.566;2022-12-20T07:24:24;-1.40;99.90
37410;DHT22;23275;48.914;12.566;2022-12-20T07:26:50;-1.40;99.90
37410;DHT22;23275;48.914;12.566;2022-12-20T07:29:20;-1.40;99.90
37410;DHT22;23275;48.914;12.566;2022-12-20T07:31:46;-1.40;99.90
37410;DHT22;23275;48.914;12.566;2022-12-20T07:34:11;-1.30;99.90
37410;DHT22;23275;48.914;12.566;2022-12-20T07:36:37;-1.30;99.90
37410;DHT22;23275;48.914;12.566;2022-12-20T07:39:03;-1.20;99.90
37410;DHT22;23275;48.914;12.566;2022-12-20T07:41:28;-1.20;99.90
37410;DHT22;23275;48.914;12.566;2022-12-20T07:43:54;-1.20;99.90
37410;DHT22;23275;48.914;12.566;2022-12-20T07:46:20;-1.10;99.90
37410;DHT22;23275;48.914;12.566;2022-12-20T07:48:45;-1.10;99.90
37410;DHT22;23275;48.914;12.566;2022-12-20T07:51:20;-1.10;99.90
37410;DHT22;23275;48.914;12.566;2022-12-20T07:53:51;-1.10;99.90
37410;DHT22;23275;48.914;12.566;2022-12-20T07:56:18;-1.10;99.90
37410;DHT22;23275;48.914;12.566;2022-12-20T07:58:45;-1.00;99.90
37410;DHT22;23275;48.914;12.566;2022-12-20T08:01:11;-1.00;99.90
37410;DHT22;23275;48.914;12.566;2022-12-20T08:03:44;-1.00;99.90
37410;DHT22;23275;48.914;12.566;2022-12-20T08:06:13;-1.00;99.90
37410;DHT22;23275;48.914;12.566;2022-12-20T08:08:43;-0.90;99.90
37410;DHT22;23275;48.914;12.566;2022-12-20T08:11:10;-0.80;99.90
37410;DHT22;23275;48.914;12.566;2022-12-20T08:13:36;-0.80;99.90
37410;DHT22;23275;48.914;12.566;2022-12-20T08:16:02;-0.70;99.90
37410;DHT22;23275;48.914;12.566;2022-12-20T08:18:28;-0.70;99.90
37410;DHT22;23275;48.914;12.566;2022-12-20T08:20:53;-0.60;99.90
37410;DHT22;23275;48.914;12.566;2022-12-20T08:23:19;-0.50;99.90
37410;DHT22;23275;48.914;12.566;2022-12-20T08:25:45;-0.40;99.90
37410;DHT22;23275;48.914;12.566;2022-12-20T08:28:10;-0.40;99.90
37410;DHT22;23275;48.914;12.566;2022-12-20T08:30:36;-0.40;99.90
37410;DHT22;23275;48.914;12.566;2022-12-20T08:33:02;-0.30;99.90
37410;DHT22;23275;48.914;12.566;2022-12-20T08:35:28;-0.30;99.90
37410;DHT22;23275;48.914;12.566;2022-12-20T08:37:53;-0.30;99.90
37410;DHT22;23275;48.914;12.566;2022-12-20T08:40:19;-0.20;99.90
37410;DHT22;23275;48.914;12.566;2022-12-20T08:42:45;-0.20;99.90
37410;DHT22;23275;48.914;12.566;2022-12-20T08:45:11;-0.10;99.90
37410;DHT22;23275;48.914;12.566;2022-12-20T08:47:37;0.00;99.90
37410;DHT22;23275;48.914;12.566;2022-12-20T08:50:03;0.10;99.90
37410;DHT22;23275;48.914;12.566;2022-12-20T08:52:28;0.30;99.90
37410;DHT22;23275;48.914;12.566;2022-12-20T08:54:54;0.60;99.90
37410;DHT22;23275;48.914;12.566;2022-12-20T08:57:19;0.80;99.90
37410;DHT22;23275;48.914;12.566;2022-12-20T08:59:45;0.90;99.90
37410;DHT22;23275;48.914;12.566;2022-12-20T09:02:11;1.10;99.90
37410;DHT22;23275;48.914;12.566;2022-12-20T09:04:36;1.20;99.90
37410;DHT22;23275;48.914;12.566;2022-12-20T09:07:04;1.40;99.90
37410;DHT22;23275;48.914;12.566;2022-12-20T09:09:30;1.40;99.90
37410;DHT22;23275;48.914;12.566;2022-12-20T09:11:56;1.30;99.90
37410;DHT22;23275;48.914;12.566;2022-12-20T09:14:22;1.00;99.90
37410;DHT22;23275;48.914;12.566;2022-12-20T09:16:47;0.80;99.90
37410;DHT22;23275;48.914;12.566;2022-12-20T09:19:15;0.40;99.90
37410;DHT22;23275;48.914;12.566;2022-12-20T09:21:41;0.20;99.90
37410;DHT22;23275;48.914;12.566;2022-12-20T09:24:07;0.10;99.90
37410;DHT22;23275;48.914;12.566;2022-12-20T09:26:33;0.10;99.90
37410;DHT22;23275;48.914;12.566;2022-12-20T09:29:00;0.10;99.90
37410;DHT22;23275;48.914;12.566;2022-12-20T09:31:29;0.00;99.90
37410;DHT22;23275;48.914;12.566;2022-12-20T09:33:56;0.00;99.90
37410;DHT22;23275;48.914;12.566;2022-12-20T09:36:25;-0.10;99.90
37410;DHT22;23275;48.914;12.566;2022-12-20T09:38:52;0.00;99.90
37410;DHT22;23275;48.914;12.566;2022-12-20T09:41:44;0.00;99.90
37410;DHT22;23275;48.914;12.566;2022-12-20T09:44:18;-0.10;99.90
37410;DHT22;23275;48.914;12.566;2022-12-20T09:46:46;0.00;99.90
37410;DHT22;23275;48.914;12.566;2022-12-20T09:49:17;0.00;99.90
37410;DHT22;23275;48.914;12.566;2022-12-20T09:57:58;0.00;99.90
37410;DHT22;23275;48.914;12.566;2022-12-20T10:00:52;-0.10;99.90
37410;DHT22;23275;48.914;12.566;2022-12-20T10:05:54;0.00;99.90
37410;DHT22;23275;48.914;12.566;2022-12-20T10:11:34;0.10;99.90
37410;DHT22;23275;48.914;12.566;2022-12-20T10:19:21;0.80;99.90
37410;DHT22;23275;48.914;12.566;2022-12-20T10:22:10;0.90;99.90
37410;DHT22;23275;48.914;12.566;2022-12-20T10:24:40;0.80;99.90
37410;DHT22;23275;48.914;12.566;2022-12-20T10:27:13;0.80;99.90
37410;DHT22;23275;48.914;12.566;2022-12-20T10:29:39;0.90;99.90
37410;DHT22;23275;48.914;12.566;2022-12-20T10:32:13;1.00;99.90
37410;DHT22;23275;48.914;12.566;2022-12-20T10:34:43;1.30;99.90
37410;DHT22;23275;48.914;12.566;2022-12-20T10:37:14;1.60;99.90
37410;DHT22;23275;48.914;12.566;2022-12-20T10:39:46;2.10;99.90
37410;DHT22;23275;48.914;12.566;2022-12-20T10:42:45;2.30;99.90
37410;DHT22;23275;48.914;12.566;2022-12-20T10:47:44;1.80;99.90
37410;DHT22;23275;48.914;12.566;2022-12-20T10:50:16;1.70;99.90
37410;DHT22;23275;48.914;12.566;2022-12-20T10:52:43;1.50;99.90
37410;DHT22;23275;48.914;12.566;2022-12-20T11:00:46;1.60;99.90
37410;DHT22;23275;48.914;12.566;2022-12-20T11:03:20;1.60;99.90
37410;DHT22;23275;48.914;12.566;2022-12-20T11:05:58;1.60;99.90
37410;DHT22;23275;48.914;12.566;2022-12-20T11:08:26;1.70;99.90
37410;DHT22;23275;48.914;12.566;2022-12-20T11:13:38;1.70;99.90
37410;DHT22;23275;48.914;12.566;2022-12-20T11:16:04;1.70;99.90
37410;DHT22;23275;48.914;12.566;2022-12-20T11:18:43;1.50;99.90
37410;DHT22;23275;48.914;12.566;2022-12-20T11:21:36;1.60;99.90
37410;DHT22;23275;48.914;12.566;2022-12-20T11:24:13;1.70;99.90
37410;DHT22;23275;48.914;12.566;2022-12-20T11:26:54;1.80;99.90
37410;DHT22;23275;48.914;12.566;2022-12-20T11:29:45;2.00;99.90
37410;DHT22;23275;48.914;12.566;2022-12-20T11:32:34;2.10;99.90
37410;DHT22;23275;48.914;12.566;2022-12-20T11:43:30;1.60;99.90
37410;DHT22;23275;48.914;12.566;2022-12-20T11:51:46;1.70;99.90
37410;DHT22;23275;48.914;12.566;2022-12-20T11:57:20;1.60;99.90
37410;DHT22;23275;48.914;12.566;2022-12-20T11:59:52;1.40;99.90
37410;DHT22;23275;48.914;12.566;2022-12-20T12:02:27;1.30;99.90
37410;DHT22;23275;48.914;12.566;2022-12-20T12:05:04;1.40;99.90
37410;DHT22;23275;48.914;12.566;2022-12-20T12:07:31;1.50;99.90
37410;DHT22;23275;48.914;12.566;2022-12-20T12:12:43;1.30;99.90
37410;DHT22;23275;48.914;12.566;2022-12-20T12:15:24;1.30;99.90
37410;DHT22;23275;48.914;12.566;2022-12-20T12:20:35;1.40;99.90
37410;DHT22;23275;48.914;12.566;2022-12-20T12:26:26;1.60;99.90
37410;DHT22;23275;48.914;12.566;2022-12-20T12:29:03;1.50;99.90
37410;DHT22;23275;48.914;12.566;2022-12-20T12:31:37;1.40;99.90
37410;DHT22;23275;48.914;12.566;2022-12-20T12:44:56;1.60;99.90
37410;DHT22;23275;48.914;12.566;2022-12-20T12:47:42;1.50;99.90
37410;DHT22;23275;48.914;12.566;2022-12-20T12:50:21;1.40;99.90
37410;DHT22;23275;48.914;12.566;2022-12-20T12:52:53;1.30;99.90
37410;DHT22;23275;48.914;12.566;2022-12-20T12:55:44;1.30;99.90
37410;DHT22;23275;48.914;12.566;2022-12-20T12:58:29;1.30;99.90
37410;DHT22;23275;48.914;12.566;2022-12-20T13:01:01;1.30;99.90
37410;DHT22;23275;48.914;12.566;2022-12-20T13:03:45;1.20;99.90
37410;DHT22;23275;48.914;12.566;2022-12-20T13:11:44;1.20;99.90
37410;DHT22;23275;48.914;12.566;2022-12-20T13:16:42;1.10;99.90
37410;DHT22;23275;48.914;12.566;2022-12-20T13:22:14;1.00;99.90
37410;DHT22;23275;48.914;12.566;2022-12-20T13:24:46;0.90;99.90
37410;DHT22;23275;48.914;12.566;2022-12-20T13:30:25;0.90;99.90
37410;DHT22;23275;48.914;12.566;2022-12-20T13:33:14;0.90;99.90
37410;DHT22;23275;48.914;12.566;2022-12-20T13:35:52;1.00;99.90
37410;DHT22;23275;48.914;12.566;2022-12-20T13:43:46;1.00;99.90
37410;DHT22;23275;48.914;12.566;2022-12-20T13:46:17;1.00;99.90
37410;DHT22;23275;48.914;12.566;2022-12-20T13:51:16;1.00;99.90
37410;DHT22;23275;48.914;12.566;2022-12-20T13:53:57;1.00;99.90
37410;DHT22;23275;48.914;12.566;2022-12-20T13:58:57;0.90;99.90
37410;DHT22;23275;48.914;12.566;2022-12-20T14:01:24;0.90;99.90
37410;DHT22;23275;48.914;12.566;2022-12-20T14:03:51;0.80;99.90
37410;DHT22;23275;48.914;12.566;2022-12-20T14:06:19;0.80;99.90
37410;DHT22;23275;48.914;12.566;2022-12-20T14:08:50;0.70;99.90
37410;DHT22;23275;48.914;12.566;2022-12-20T14:11:23;0.70;99.90
37410;DHT22;23275;48.914;12.566;2022-12-20T14:14:00;0.60;99.90
37410;DHT22;23275;48.914;12.566;2022-12-20T14:16:28;0.60;99.90
37410;DHT22;23275;48.914;12.566;2022-12-20T14:21:23;0.60;99.90
37410;DHT22;23275;48.914;12.566;2022-12-20T14:23:51;0.60;99.90
37410;DHT22;23275;48.914;12.566;2022-12-20T14:26:23;0.60;99.90
37410;DHT22;23275;48.914;12.566;2022-12-20T14:28:51;0.60;99.90
37410;DHT22;23275;48.914;12.566;2022-12-20T14:31:42;0.50;99.90
37410;DHT22;23275;48.914;12.566;2022-12-20T14:36:38;0.50;99.90
37410;DHT22;23275;48.914;12.566;2022-12-20T14:39:23;0.50;99.90
37410;DHT22;23275;48.914;12.566;2022-12-20T14:44:36;0.40;99.90
37410;DHT22;23275;48.914;12.566;2022-12-20T14:47:23;0.40;99.90
37410;DHT22;23275;48.914;12.566;2022-12-20T14:50:02;0.40;99.90
37410;DHT22;23275;48.914;12.566;2022-12-20T14:55:04;0.50;99.90
37410;DHT22;23275;48.914;12.566;2022-12-20T14:57:43;0.50;99.90
37410;DHT22;23275;48.914;12.566;2022-12-20T15:08:32;0.40;99.90
37410;DHT22;23275;48.914;12.566;2022-12-20T15:13:41;0.40;99.90
37410;DHT22;23275;48.914;12.566;2022-12-20T15:16:15;0.40;99.90
37410;DHT22;23275;48.914;12.566;2022-12-20T15:18:41;0.40;99.90
37410;DHT22;23275;48.914;12.566;2022-12-20T15:21:36;0.30;99.90
37410;DHT22;23275;48.914;12.566;2022-12-20T15:24:11;0.30;99.90
37410;DHT22;23275;48.914;12.566;2022-12-20T15:26:37;0.30;99.90
37410;DHT22;23275;48.914;12.566;2022-12-20T15:29:17;0.30;99.90
37410;DHT22;23275;48.914;12.566;2022-12-20T15:31:43;0.30;99.90
37410;DHT22;23275;48.914;12.566;2022-12-20T15:34:35;0.30;99.90
37410;DHT22;23275;48.914;12.566;2022-12-20T15:37:01;0.30;99.90
37410;DHT22;23275;48.914;12.566;2022-12-20T15:39:28;0.20;99.90
37410;DHT22;23275;48.914;12.566;2022-12-20T15:41:59;0.20;99.90
37410;DHT22;23275;48.914;12.566;2022-12-20T15:44:28;0.20;99.90
37410;DHT22;23275;48.914;12.566;2022-12-20T15:46:54;0.20;99.90
37410;DHT22;23275;48.914;12.566;2022-12-20T15:49:21;0.20;99.90
37410;DHT22;23275;48.914;12.566;2022-12-20T15:51:48;0.20;99.90
37410;DHT22;23275;48.914;12.566;2022-12-20T15:54:25;0.30;99.90
37410;DHT22;23275;48.914;12.566;2022-12-20T15:56:52;0.30;99.90
37410;DHT22;23275;48.914;12.566;2022-12-20T15:59:18;0.20;99.90
37410;DHT22;23275;48.914;12.566;2022-12-20T16:01:44;0.20;99.90
37410;DHT22;23275;48.914;12.566;2022-12-20T16:04:15;0.20;99.90
37410;DHT22;23275;48.914;12.566;2022-12-20T16:06:42;0.20;99.90
37410;DHT22;23275;48.914;12.566;2022-12-20T16:09:08;0.20;99.90
37410;DHT22;23275;48.914;12.566;2022-12-20T16:11:34;0.20;99.90
37410;DHT22;23275;48.914;12.566;2022-12-20T16:13:59;0.20;99.90
37410;DHT22;23275;48.914;12.566;2022-12-20T16:16:33;0.20;99.90
37410;DHT22;23275;48.914;12.566;2022-12-20T16:19:00;0.20;99.90
37410;DHT22;23275;48.914;12.566;2022-12-20T16:21:44;0.20;99.90
37410;DHT22;23275;48.914;12.566;2022-12-20T16:24:12;0.10;99.90
37410;DHT22;23275;48.914;12.566;2022-12-20T16:26:38;0.10;99.90
37410;DHT22;23275;48.914;12.566;2022-12-20T16:29:04;0.00;99.90
37410;DHT22;23275;48.914;12.566;2022-12-20T16:31:32;0.10;99.90
37410;DHT22;23275;48.914;12.566;2022-12-20T16:34:00;0.00;99.90
37410;DHT22;23275;48.914;12.566;2022-12-20T16:36:27;0.00;99.90
37410;DHT22;23275;48.914;12.566;2022-12-20T16:38:54;0.00;99.90
37410;DHT22;23275;48.914;12.566;2022-12-20T16:41:25;0.00;99.90
37410;DHT22;23275;48.914;12.566;2022-12-20T16:43:52;0.00;99.90
37410;DHT22;23275;48.914;12.566;2022-12-20T16:46:20;0.10;99.90
37410;DHT22;23275;48.914;12.566;2022-12-20T16:48:47;0.10;99.90
37410;DHT22;23275;48.914;12.566;2022-12-20T16:51:23;0.00;99.90
37410;DHT22;23275;48.914;12.566;2022-12-20T16:53:51;0.00;99.90
37410;DHT22;23275;48.914;12.566;2022-12-20T16:56:17;0.10;99.90
37410;DHT22;23275;48.914;12.566;2022-12-20T16:58:43;0.10;99.90
37410;DHT22;23275;48.914;12.566;2022-12-20T17:01:14;0.00;99.90
37410;DHT22;23275;48.914;12.566;2022-12-20T17:03:42;0.00;99.90
37410;DHT22;23275;48.914;12.566;2022-12-20T17:06:09;0.00;99.90
37410;DHT22;23275;48.914;12.566;2022-12-20T17:08:36;0.00;99.90
37410;DHT22;23275;48.914;12.566;2022-12-20T17:11:04;0.00;99.90
37410;DHT22;23275;48.914;12.566;2022-12-20T17:13:33;0.00;99.90
37410;DHT22;23275;48.914;12.566;2022-12-20T17:15:58;0.00;99.90
37410;DHT22;23275;48.914;12.566;2022-12-20T17:18:24;-0.10;99.90
37410;DHT22;23275;48.914;12.566;2022-12-20T17:20:50;0.00;99.90
37410;DHT22;23275;48.914;12.566;2022-12-20T17:23:17;-0.10;99.90
37410;DHT22;23275;48.914;12.566;2022-12-20T17:25:42;-0.10;99.90
37410;DHT22;23275;48.914;12.566;2022-12-20T17:28:08;-0.10;99.90
37410;DHT22;23275;48.914;12.566;2022-12-20T17:30:34;-0.10;99.90
37410;DHT22;23275;48.914;12.566;2022-12-20T17:33:00;-0.10;99.90
37410;DHT22;23275;48.914;12.566;2022-12-20T17:35:29;-0.10;99.90
37410;DHT22;23275;48.914;12.566;2022-12-20T17:37:56;-0.10;99.90
37410;DHT22;23275;48.914;12.566;2022-12-20T17:40:24;-0.10;99.90
37410;DHT22;23275;48.914;12.566;2022-12-20T17:42:50;-0.10;99.90
37410;DHT22;23275;48.914;12.566;2022-12-20T17:45:25;-0.10;99.90
37410;DHT22;23275;48.914;12.566;2022-12-20T17:47:52;-0.10;99.90